createdAt,value
2023-01-20T00:05:04.074Z,96.29
2023-01-20T00:10:08.108Z,96.32
2023-01-20T00:15:15.416Z,96.31
2023-01-20T00:20:18.428Z,96.32
2023-01-20T00:25:21.107Z,96.32
2023-01-20T00:30:23.563Z,96.32
2023-01-20T00:35:26.891Z,96.32
2023-01-20T00:40:28.985Z,96.32
2023-01-20T00:45:31.125Z,96.32
2023-01-20T00:50:33.628Z,96.32
2023-01-20T00:55:35.696Z,96.32
2023-01-20T01:00:37.740Z,96.33
2023-01-20T01:05:40.081Z,96.32
2023-01-20T01:10:42.708Z,96.31
2023-01-20T01:15:58.579Z,96.29
2023-01-20T01:21:06.474Z,96.26
2023-01-20T01:26:08.512Z,96.29
2023-01-20T01:31:10.708Z,96.34
2023-01-20T01:36:14.646Z,96.36
2023-01-20T01:41:17.576Z,96.39
2023-01-20T01:46:22.230Z,96.39
2023-01-20T01:52:02.364Z,96.36
2023-01-20T01:57:07.519Z,96.35
2023-01-20T02:02:09.903Z,96.37
2023-01-20T02:07:18.307Z,96.40
2023-01-20T02:12:22.518Z,96.40
2023-01-20T02:17:38.221Z,96.40
2023-01-20T02:23:02.131Z,96.40
2023-01-20T02:28:18.219Z,96.34
2023-01-20T02:33:32.103Z,96.33
2023-01-20T02:39:01.113Z,96.35
2023-01-20T02:44:28.632Z,96.37
2023-01-20T02:49:41.087Z,96.36
2023-01-20T02:54:50.395Z,96.27
2023-01-20T02:59:57.146Z,96.28
2023-01-20T03:05:13.380Z,96.26
2023-01-20T03:10:19.168Z,96.22
2023-01-20T03:15:26.615Z,96.18
2023-01-20T03:20:28.665Z,96.17
2023-01-20T03:25:31.085Z,96.20
2023-01-20T03:30:33.147Z,96.25
2023-01-20T03:35:36.078Z,96.28
2023-01-20T03:40:48.666Z,96.28
2023-01-20T03:46:00.675Z,96.30
2023-01-20T03:51:17.676Z,96.34
2023-01-20T03:56:33.321Z,96.39
2023-01-20T04:01:39.838Z,96.45
2023-01-20T04:06:43.919Z,96.50
2023-01-20T04:11:46.560Z,96.54
2023-01-20T04:16:59.002Z,96.57
2023-01-20T04:22:07.871Z,96.60
2023-01-20T04:27:10.082Z,96.61
2023-01-20T04:32:12.722Z,96.62
2023-01-20T04:37:15.383Z,96.61
2023-01-20T04:42:17.787Z,96.52
2023-01-20T04:47:19.762Z,96.50
2023-01-20T04:52:22.117Z,96.39
2023-01-20T04:57:24.004Z,96.41
2023-01-20T05:02:26.213Z,96.41
2023-01-20T05:07:28.383Z,96.40
2023-01-20T05:12:31.079Z,96.39
2023-01-20T05:17:33.145Z,96.36
2023-01-20T05:22:35.141Z,96.39
2023-01-20T05:27:38.064Z,96.39
2023-01-20T05:32:46.746Z,96.40
2023-01-20T05:37:48.639Z,96.39
2023-01-20T05:42:53.174Z,96.42
2023-01-20T05:47:59.467Z,96.39
2023-01-20T05:53:02.111Z,96.35
2023-01-20T05:58:05.264Z,96.33
2023-01-20T06:03:10.049Z,96.32
2023-01-20T06:08:12.358Z,96.28
2023-01-20T06:13:14.249Z,96.28
2023-01-20T06:18:19.435Z,96.25
2023-01-20T06:23:21.771Z,96.23
2023-01-20T06:28:23.926Z,96.23
2023-01-20T06:33:25.888Z,96.21
2023-01-20T06:38:31.332Z,96.22
2023-01-20T06:43:35.394Z,96.22
2023-01-20T06:48:37.673Z,96.23
2023-01-20T06:53:40.370Z,96.22
2023-01-20T06:58:43.183Z,96.20
2023-01-20T07:03:45.166Z,96.16
2023-01-20T07:08:47.210Z,96.12
2023-01-20T07:13:49.625Z,96.11
2023-01-20T07:18:52.731Z,96.12
2023-01-20T07:23:55.604Z,96.14
2023-01-20T07:28:59.141Z,96.17
2023-01-20T07:34:01.169Z,96.20
2023-01-20T07:39:03.205Z,96.21
2023-01-20T07:44:05.366Z,96.21
2023-01-20T07:49:07.195Z,96.19
2023-01-20T07:54:11.722Z,96.19
2023-01-20T07:59:13.684Z,96.19
2023-01-20T08:04:15.842Z,96.18
2023-01-20T08:09:17.900Z,96.15
2023-01-20T08:14:20.372Z,96.10
2023-01-20T08:19:22.438Z,96.08
2023-01-20T08:24:24.466Z,96.03
2023-01-20T08:29:27.737Z,95.99
2023-01-20T08:34:30.668Z,95.93
2023-01-20T08:39:33.079Z,95.93
2023-01-20T08:44:35.554Z,95.91
2023-01-20T08:49:37.777Z,95.99
2023-01-20T08:54:39.907Z,95.98
2023-01-20T08:59:42.462Z,95.97
2023-01-20T09:04:44.734Z,96.01
2023-01-20T09:09:49.871Z,96.07
2023-01-20T09:14:51.717Z,96.09
2023-01-20T09:19:55.039Z,95.99
2023-01-20T09:24:57.252Z,95.98
2023-01-20T09:30:35.510Z,95.99
2023-01-20T09:35:41.279Z,95.85
2023-01-20T09:41:36.847Z,95.94
2023-01-20T09:47:21.932Z,96.01
2023-01-20T09:52:51.985Z,96.04
2023-01-20T09:58:48.843Z,96.03
2023-01-20T10:04:31.159Z,95.99
2023-01-20T10:09:44.702Z,95.95
2023-01-20T10:15:07.405Z,95.97
2023-01-20T10:20:39.403Z,95.96
2023-01-20T10:25:50.118Z,95.96
2023-01-20T10:30:52.300Z,95.94
2023-01-20T10:35:58.420Z,95.96
2023-01-20T10:41:13.974Z,95.93
2023-01-20T10:46:47.469Z,95.91
2023-01-20T10:52:11.313Z,95.93
2023-01-20T10:57:15.653Z,95.94
2023-01-20T11:02:22.907Z,95.95
2023-01-20T11:07:25.926Z,95.98
2023-01-20T11:12:32.407Z,96.01
2023-01-20T11:17:34.533Z,96.01
2023-01-20T11:22:37.978Z,96.04
2023-01-20T11:27:46.035Z,96.09
2023-01-20T11:33:08.712Z,96.07
2023-01-20T11:38:24.851Z,96.03
2023-01-20T11:43:34.589Z,96.00
2023-01-20T11:48:36.625Z,95.93
2023-01-20T11:53:39.284Z,95.96
2023-01-20T11:59:01.895Z,95.96
2023-01-20T12:04:23.430Z,95.90
2023-01-20T12:09:32.765Z,95.84
2023-01-20T12:14:43.568Z,95.84
2023-01-20T12:20:20.172Z,95.78
2023-01-20T12:25:27.129Z,95.77
2023-01-20T12:30:38.448Z,95.75
2023-01-20T12:35:56.500Z,95.56
2023-01-20T12:41:05.891Z,95.68
2023-01-20T12:46:38.200Z,95.59
2023-01-20T12:51:43.020Z,95.18
2023-01-20T12:57:00.436Z,95.28
2023-01-20T13:02:37.559Z,95.32
2023-01-20T13:08:18.760Z,95.35
2023-01-20T13:13:55.973Z,95.37
2023-01-20T13:19:30.294Z,95.39
2023-01-20T13:24:32.448Z,95.40
2023-01-20T13:29:34.840Z,95.46
2023-01-20T13:34:40.288Z,95.50
2023-01-20T13:39:51.475Z,95.56
2023-01-20T13:45:11.597Z,95.56
2023-01-20T13:50:38.760Z,95.58
2023-01-20T13:55:40.724Z,95.47
2023-01-20T14:00:44.749Z,95.42
2023-01-20T14:06:08.149Z,95.42
2023-01-20T14:11:26.771Z,95.44
2023-01-20T14:16:37.477Z,95.49
2023-01-20T14:21:40.814Z,95.53
2023-01-20T14:26:42.773Z,95.57
2023-01-20T14:31:46.220Z,95.55
2023-01-20T14:36:48.281Z,95.55
2023-01-20T14:41:55.593Z,95.51
2023-01-20T14:46:59.371Z,95.54
2023-01-20T14:52:02.319Z,95.56
2023-01-20T14:57:43.391Z,95.56
2023-01-20T15:03:10.947Z,95.50
2023-01-20T15:08:26.020Z,95.47
2023-01-20T15:13:31.216Z,95.44
2023-01-20T15:18:33.679Z,95.51
2023-01-20T15:23:38.288Z,95.59
2023-01-20T15:28:44.518Z,95.62
2023-01-20T15:33:48.549Z,95.40
2023-01-20T15:38:51.009Z,95.43
2023-01-20T15:43:52.882Z,95.49
2023-01-20T15:49:02.580Z,95.32
2023-01-20T15:54:07.359Z,95.33
2023-01-20T15:59:20.855Z,95.44
2023-01-20T16:04:24.297Z,95.56
2023-01-20T16:09:29.865Z,95.60
2023-01-20T16:14:34.564Z,95.58
2023-01-20T16:19:38.235Z,95.60
2023-01-20T16:24:41.574Z,95.65
2023-01-20T16:29:44.346Z,95.66
2023-01-20T16:34:46.856Z,95.70
2023-01-20T16:39:48.728Z,95.75
2023-01-20T16:44:52.934Z,95.74
2023-01-20T16:49:54.969Z,95.68
2023-01-20T16:54:57.084Z,95.63
2023-01-20T16:59:59.833Z,95.72
2023-01-20T17:05:02.284Z,95.71
2023-01-20T17:10:08.825Z,95.68
2023-01-20T17:15:11.952Z,95.64
2023-01-20T17:20:14.306Z,95.66
2023-01-20T17:25:20.126Z,95.64
2023-01-20T17:30:24.546Z,95.63
2023-01-20T17:35:28.067Z,95.51
2023-01-20T17:40:31.383Z,95.55
2023-01-20T17:45:35.025Z,95.57
2023-01-20T17:50:39.456Z,95.54
2023-01-20T17:55:42.033Z,95.56
2023-01-20T18:00:44.857Z,95.51
2023-01-20T18:05:47.280Z,95.53
2023-01-20T18:10:51.835Z,95.55
2023-01-20T18:15:53.989Z,95.59
2023-01-20T18:20:56.315Z,95.59
2023-01-20T18:25:59.016Z,95.53
2023-01-20T18:31:10.592Z,95.54
2023-01-20T18:36:15.987Z,95.50
2023-01-20T18:41:22.220Z,95.50
2023-01-20T18:46:25.977Z,95.55
2023-01-20T18:51:30.287Z,95.60
2023-01-20T18:56:34.623Z,95.61
2023-01-20T19:01:40.537Z,95.64
2023-01-20T19:06:44.844Z,95.67
2023-01-20T19:11:47.517Z,95.64
2023-01-20T19:16:51.692Z,95.59
2023-01-20T19:21:53.843Z,95.57
2023-01-20T19:26:58.722Z,95.60
2023-01-20T19:32:01.683Z,95.63
2023-01-20T19:37:03.514Z,95.62
2023-01-20T19:42:05.480Z,95.66
2023-01-20T19:47:07.728Z,95.65
2023-01-20T19:52:09.762Z,95.59
2023-01-20T19:57:11.987Z,95.64
2023-01-20T20:02:14.198Z,95.64
2023-01-20T20:07:16.317Z,95.64
2023-01-20T20:12:18.258Z,95.67
2023-01-20T20:17:21.264Z,95.67
2023-01-20T20:22:23.589Z,95.69
2023-01-20T20:27:26.834Z,95.70
2023-01-20T20:32:29.352Z,95.74
2023-01-20T20:37:31.470Z,95.75
2023-01-20T20:42:35.201Z,95.75
2023-01-20T20:47:37.372Z,95.72
2023-01-20T20:52:39.292Z,95.72
2023-01-20T20:57:41.591Z,95.68
2023-01-20T21:02:46.271Z,95.68
2023-01-20T21:07:48.995Z,95.62
2023-01-20T21:12:51.614Z,95.64
2023-01-20T21:17:53.819Z,95.60
2023-01-20T21:22:58.495Z,95.58
2023-01-20T21:28:00.653Z,95.46
2023-01-20T21:33:03.157Z,95.52
2023-01-20T21:38:08.692Z,95.51
2023-01-20T21:43:29.514Z,95.44
2023-01-20T21:48:51.074Z,95.37
2023-01-20T21:53:53.630Z,95.43
2023-01-20T21:58:56.296Z,95.48
2023-01-20T22:03:58.354Z,95.49
2023-01-20T22:09:00.425Z,95.47
2023-01-20T22:14:09.323Z,95.43
2023-01-20T22:19:14.763Z,95.46
2023-01-20T22:24:17.939Z,95.43
2023-01-20T22:29:20.190Z,95.49
2023-01-20T22:34:22.570Z,95.59
2023-01-20T22:39:24.913Z,95.57
2023-01-20T22:44:27.764Z,95.52
2023-01-20T22:49:30.005Z,95.46
2023-01-20T22:54:32.230Z,95.44
2023-01-20T22:59:39.554Z,95.43
2023-01-20T23:04:42.023Z,95.47
2023-01-20T23:09:46.426Z,95.48
2023-01-20T23:15:04.464Z,95.50
2023-01-20T23:20:08.597Z,95.51
2023-01-20T23:25:11.371Z,95.52
2023-01-20T23:30:13.656Z,95.52
2023-01-20T23:35:22.667Z,95.56
2023-01-20T23:40:27.571Z,95.62
2023-01-20T23:45:30.025Z,95.62
2023-01-20T23:50:32.395Z,95.59
2023-01-20T23:55:37.060Z,95.60
